Map

Track Data

SID SEASON NUMBER BASIN SUBBASIN NAME ISO_TIME NATURE LAT LON WMO_WIND WMO_PRES WMO_AGENCY TRACK_TYPE DIST2LAND LANDFALL IFLAG USA_AGENCY USA_ATCF_ID USA_LAT USA_LON USA_RECORD USA_STATUS USA_WIND USA_PRES USA_SSHS USA_R34_NE USA_R34_SE USA_R34_SW USA_R34_NW USA_R50_NE USA_R50_SE USA_R50_SW USA_R50_NW USA_R64_NE USA_R64_SE USA_R64_SW USA_R64_NW USA_POCI USA_ROCI USA_RMW USA_EYE TOKYO_LAT TOKYO_LON TOKYO_GRADE TOKYO_WIND TOKYO_PRES TOKYO_R50_DIR TOKYO_R50_LONG TOKYO_R50_SHORT TOKYO_R30_DIR TOKYO_R30_LONG TOKYO_R30_SHORT TOKYO_LAND CMA_LAT CMA_LON CMA_CAT CMA_WIND CMA_PRES HKO_LAT HKO_LON HKO_CAT HKO_WIND HKO_PRES NEWDELHI_LAT NEWDELHI_LON NEWDELHI_GRADE NEWDELHI_WIND NEWDELHI_PRES NEWDELHI_CI NEWDELHI_DP NEWDELHI_POCI REUNION_LAT REUNION_LON REUNION_TYPE REUNION_WIND REUNION_PRES REUNION_TNUM REUNION_CI REUNION_RMW REUNION_R34_NE REUNION_R34_SE REUNION_R34_SW REUNION_R34_NW REUNION_R50_NE REUNION_R50_SE REUNION_R50_SW REUNION_R50_NW REUNION_R64_NE REUNION_R64_SE REUNION_R64_SW REUNION_R64_NW BOM_LAT BOM_LON BOM_TYPE BOM_WIND BOM_PRES BOM_TNUM BOM_CI BOM_RMW BOM_R34_NE BOM_R34_SE BOM_R34_SW BOM_R34_NW BOM_R50_NE BOM_R50_SE BOM_R50_SW BOM_R50_NW BOM_R64_NE BOM_R64_SE BOM_R64_SW BOM_R64_NW BOM_ROCI BOM_POCI BOM_EYE BOM_POS_METHOD BOM_PRES_METHOD NADI_LAT NADI_LON NADI_CAT NADI_WIND NADI_PRES WELLINGTON_LAT WELLINGTON_LON WELLINGTON_WIND WELLINGTON_PRES DS824_LAT DS824_LON DS824_STAGE DS824_WIND DS824_PRES TD9636_LAT TD9636_LON TD9636_STAGE TD9636_WIND TD9636_PRES TD9635_LAT TD9635_LON TD9635_WIND TD9635_PRES TD9635_ROCI NEUMANN_LAT NEUMANN_LON NEUMANN_CLASS NEUMANN_WIND NEUMANN_PRES MLC_LAT MLC_LON MLC_CLASS MLC_WIND MLC_PRES USA_GUST BOM_GUST BOM_GUST_PER REUNION_GUST REUNION_GUST_PER USA_SEAHGT USA_SEARAD_NE USA_SEARAD_SE USA_SEARAD_SW USA_SEARAD_NW STORM_SPEED STORM_DIR
1970071S11155 1970 28 SP EA CINDY 1970-03-11 20:00:00 NR -11.0000 154.800 main 400 400 __________O___ -1 -11.0000 154.800 1 5 8 308
1970071S11155 1970 28 SP EA CINDY 1970-03-11 21:00:00 NR -10.9156 154.691 main 400 399 __________P___ -1 -10.9156 154.691 1 5 8 311
1970071S11155 1970 28 SP EA CINDY 1970-03-12 00:00:00 TS -10.6355 154.377 main 401 372 O________OP___ jtwc_sh SH231970 -10.6000 154.400 5 -1 -10.6000 154.400 TC 5 -10.6592 154.361 1 6 8 310
1970071S11155 1970 28 SP EA CINDY 1970-03-12 03:00:00 TS -10.3772 154.045 main 361 328 P________PP___ SH231970 -10.3625 154.070 7 -1 -10.3625 154.070 TC 7 -10.3918 154.019 1 7 9 308
1970071S11155 1970 28 SP EA CINDY 1970-03-12 06:00:00 TS -10.1022 153.683 main 329 299 O________OP___ jtwc_sh SH231970 -10.1000 153.700 10 -1 -10.1000 153.700 TC 10 -10.1055 153.657 1 9 9 307
1970071S11155 1970 28 SP EA CINDY 1970-03-12 08:00:00 TS -9.90164 153.411 main 299 290 P________PO___ SH231970 -9.90247 153.416 10 -1 -9.90247 153.416 TC 10 -9.90000 153.400 1 10 10 307
1970071S11155 1970 28 SP EA CINDY 1970-03-12 09:00:00 TS -9.79745 153.265 main 290 247 P________PP___ SH231970 -9.79999 153.265 10 -1 -9.79999 153.265 TC 10 -9.79237 153.266 1 10 11 305
1970071S11155 1970 28 SP EA CINDY 1970-03-12 12:00:00 TS -9.48878 152.814 main 247 223 O________OP___ jtwc_sh SH231970 -9.50000 152.800 10 -1 -9.50000 152.800 TC 10 -9.46633 152.842 1 10 11 304
1970071S11155 1970 28 SP EA CINDY 1970-03-12 15:00:00 TS -9.20477 152.369 main 223 196 P________PP___ SH231970 -9.21992 152.358 10 -1 -9.21992 152.358 TC 10 -9.17449 152.392 1 10 10 299
1970071S11155 1970 28 SP EA CINDY 1970-03-12 18:00:00 TS -8.98896 151.907 main 196 182 O________OP___ jtwc_sh SH231970 -9.00000 151.900 10 -1 -9.00000 151.900 TC 10 -8.96688 151.921 1 10 10 293
1970071S11155 1970 28 SP EA CINDY 1970-03-12 20:00:00 TS -8.87743 151.583 main 182 174 P________PO___ SH231970 -8.86614 151.574 10 -1 -8.86614 151.574 TC 10 -8.90000 151.600 1 10 10 287
1970071S11155 1970 28 SP EA CINDY 1970-03-12 21:00:00 TS -8.84049 151.418 main 174 133 P________PP___ SH231970 -8.81746 151.407 10 -1 -8.81746 151.407 TC 10 -8.88654 151.440 1 9 10 273
1970071S11155 1970 28 SP EA CINDY 1970-03-13 00:00:00 TS -8.84458 150.916 main 133 85 O________OP___ jtwc_sh SH231970 -8.80000 150.900 10 -1 -8.80000 150.900 TC 10 -8.93374 150.949 1 8 10 258
1970071S11155 1970 28 SP EA CINDY 1970-03-13 03:00:00 TS -9.05001 150.416 main 74 35 P________PP___ SH231970 -9.02494 150.400 7 -1 -9.02494 150.400 TC 7 -9.10015 150.446 1 7 11 241
1970071S11155 1970 28 SP EA CINDY 1970-03-13 06:00:00 TS -9.39005 149.913 main 35 10 O________OP___ jtwc_sh SH231970 -9.40000 149.900 5 -1 -9.40000 149.900 TC 5 -9.37014 149.938 1 5 12 235
1970071S11155 1970 28 SP EA CINDY 1970-03-13 08:00:00 TS -9.62663 149.578 main 10 0 P________PO___ SH231970 -9.63994 149.567 5 -1 -9.63994 149.567 TC 5 -9.60000 149.600 1 5 12 234
1970071S11155 1970 28 SP EA CINDY 1970-03-13 09:00:00 TS -9.75590 149.411 main 0 0 P________PP___ SH231970 -9.76993 149.400 5 -1 -9.76993 149.400 TC 5 -9.72784 149.435 1 5 13 229
1970071S11155 1970 28 SP EA CINDY 1970-03-13 12:00:00 TS -10.1939 148.913 main 0 0 O________OP___ jtwc_sh SH231970 -10.2000 148.900 5 -1 -10.2000 148.900 TC 5 -10.1817 148.939 1 8 14 226
1970071S11155 1970 28 SP EA CINDY 1970-03-13 15:00:00 TS -10.6974 148.414 main 56 56 P________PP___ SH231970 -10.6999 148.400 10 -1 -10.6999 148.400 TC 10 -10.6923 148.442 1 10 14 224
1970071S11155 1970 28 SP EA CINDY 1970-03-13 18:00:00 TS -11.1991 147.913 main 112 112 O________OP___ jtwc_sh SH231970 -11.2000 147.900 15 -1 -11.2000 147.900 TC 15 -11.1973 147.939 1 13 14 226
1970071S11155 1970 28 SP EA CINDY 1970-03-13 20:00:00 TS -11.4991 147.581 main 152 152 P________PO___ SH231970 -11.4986 147.572 15 -1 -11.4986 147.572 TC 15 -11.5000 147.600 1 15 13 228
1970071S11155 1970 28 SP EA CINDY 1970-03-13 21:00:00 TS -11.6343 147.412 main 169 169 P________PP___ SH231970 -11.6374 147.407 15 -1 -11.6374 147.407 TC 15 -11.6283 147.421 1 15 13 234
1970071S11155 1970 28 SP EA CINDY 1970-03-14 00:00:00 TS -11.9911 146.892 main 230 230 O________OP___ jtwc_sh SH231970 -12.0000 146.900 15 -1 -12.0000 146.900 TC 15 -11.9734 146.875 1 16 12 238
1970071S11155 1970 28 SP EA CINDY 1970-03-14 03:00:00 TS -12.2828 146.335 main 289 245 P________PP___ SH231970 -12.2951 146.335 17 -1 -12.2951 146.335 TC 17 -12.2584 146.334 1 17 12 245
1970071S11155 1970 28 SP EA CINDY 1970-03-14 06:00:00 TS -12.4945 145.806 main 245 218 O________OP___ jtwc_sh SH231970 -12.5000 145.800 20 -1 -12.5000 145.800 TC 20 -12.4834 145.818 1 19 10 249
1970071S11155 1970 28 SP EA CINDY 1970-03-14 08:00:00 TS -12.5971 145.503 main 218 208 P________PO___ SH231970 -12.5957 145.504 20 -1 -12.5957 145.504 TC 20 -12.6000 145.500 1 20 9 252
1970071S11155 1970 28 SP EA CINDY 1970-03-14 09:00:00 TS -12.6371 145.366 main 208 164 P________PP___ SH231970 -12.6299 145.370 20 -1 -12.6299 145.370 TC 20 -12.6516 145.358 1 20 8 256
1970071S11155 1970 28 SP EA CINDY 1970-03-14 12:00:00 TS -12.7208 144.989 main 164 130 O________OP___ jtwc_sh SH231970 -12.7000 145.000 20 -1 -12.7000 145.000 TC 20 -12.7624 144.968 1 20 7 259
1970071S11155 1970 28 SP EA CINDY 1970-03-14 15:00:00 TS -12.7756 144.641 main 119 87 P________PP___ SH231970 -12.7499 144.657 20 -1 -12.7499 144.657 TC 20 -12.8271 144.608 1 20 7 262
1970071S11155 1970 28 SP EA CINDY 1970-03-14 18:00:00 TS -12.8235 144.284 main 87 54 O________OP___ jtwc_sh SH231970 -12.8000 144.300 20 -1 -12.8000 144.300 TC 20 -12.8706 144.251 1 20 7 261
1970071S11155 1970 28 SP EA CINDY 1970-03-14 20:00:00 TS -12.8761 144.011 main 54 43 P________PO___ SH231970 -12.8642 144.016 20 -1 -12.8642 144.016 TC 20 -12.9000 144.000 1 20 8 258
1970071S11155 1970 28 SP EA CINDY 1970-03-14 21:00:00 TS -12.9071 143.863 main 43 0 P________PP___ SH231970 -12.9000 143.865 20 -1 -12.9000 143.865 TC 20 -12.9213 143.859 1 19 9 259
1970071S11155 1970 28 SP EA CINDY 1970-03-15 00:00:00 TS -12.9946 143.406 main 0 0 O________OP___ jtwc_sh SH231970 -13.0000 143.400 20 -1 -13.0000 143.400 TC 20 -12.9837 143.418 1 18 9 261
1970071S11155 1970 28 SP EA CINDY 1970-03-15 03:00:00 TS -13.0453 142.954 main 0 0 P________PP___ SH231970 -13.0424 142.950 17 -1 -13.0424 142.950 TC 17 -13.0511 142.962 1 17 9 262
1970071S11155 1970 28 SP EA CINDY 1970-03-15 06:00:00 TS -13.1109 142.501 main 0 0 O________OP___ jtwc_sh SH231970 -13.1000 142.500 15 -1 -13.1000 142.500 TC 15 -13.1328 142.502 1 15 9 259
1970071S11155 1970 28 SP EA CINDY 1970-03-15 08:00:00 TS -13.1894 142.196 main 0 0 P________PO___ SH231970 -13.1842 142.195 15 -1 -13.1842 142.195 TC 15 -13.2000 142.200 1 15 9 254
1970071S11155 1970 28 SP EA CINDY 1970-03-15 09:00:00 TS -13.2386 142.047 main 0 0 P________PP___ SH231970 -13.2350 142.043 15 -1 -13.2350 142.043 TC 15 -13.2460 142.055 1 15 9 250
1970071S11155 1970 28 SP EA CINDY 1970-03-15 12:00:00 TS -13.4010 141.609 main 10 10 O________OP___ jtwc_sh SH231970 -13.4000 141.600 15 -1 -13.4000 141.600 TC 15 -13.4031 141.626 1 15 9 249
1970071S11155 1970 28 SP EA CINDY 1970-03-15 15:00:00 TS -13.5615 141.201 main 43 43 P________PP___ SH231970 -13.5574 141.200 15 -1 -13.5574 141.200 TC 15 -13.5696 141.202 1 15 9 249
1970071S11155 1970 28 SP EA CINDY 1970-03-15 18:00:00 TS -13.7068 140.794 main 78 78 O________OP___ jtwc_sh SH231970 -13.7000 140.800 15 -1 -13.7000 140.800 TC 15 -13.7205 140.781 1 15 9 251
1970071S11155 1970 28 SP EA CINDY 1970-03-15 20:00:00 TS -13.7903 140.502 main 108 108 P________PO___ SH231970 -13.7854 140.502 15 -1 -13.7854 140.502 TC 15 -13.8000 140.500 1 15 9 255
1970071S11155 1970 28 SP EA CINDY 1970-03-15 21:00:00 TS -13.8221 140.353 main 119 119 P________PP___ SH231970 -13.8225 140.350 15 -1 -13.8225 140.350 TC 15 -13.8213 140.358 1 15 9 261
1970071S11155 1970 28 SP EA CINDY 1970-03-15 23:00:00 TS -13.8569 140.044 1004 bom main 161 161 P_____O__PP___ SH231970 -13.8807 140.047 15 -1 -13.7000 139.900 1004 -13.8807 140.047 TC 15 -13.8485 140.075 1 16 9 268
1970071S11155 1970 28 SP EA CINDY 1970-03-16 00:00:00 TS -13.8398 139.901 main 173 173 O_____P__OP_O_ jtwc_sh SH231970 -13.9000 139.900 15 -1 -13.7055 139.789 -13.9000 139.900 TC 15 -13.8563 139.933 1 16 -13.7000 140.100 TC 15 1006 8 273
1970071S11155 1970 28 SP EA CINDY 1970-03-16 03:00:00 TS -13.8280 139.518 main 216 216 P_____P__PP_P_ SH231970 -13.9074 139.500 17 -1 -13.7229 139.457 -13.9074 139.500 TC 17 -13.8672 139.508 1 17 -13.6901 139.740 TC 15 1006 7 271
1970071S11155 1970 28 SP EA CINDY 1970-03-16 06:00:00 TS -13.8212 139.151 main 243 212 O_____P__OP_O_ jtwc_sh SH231970 -13.9000 139.100 20 -1 -13.7446 139.129 -13.9000 139.100 TC 20 -13.8792 139.083 1 19 -13.7000 139.400 TC 15 1006 7 269
1970071S11155 1970 28 SP EA CINDY 1970-03-16 08:00:00 TS -13.8346 138.909 main 212 202 P_____P__PO_P_ SH231970 -13.9200 138.802 20 -1 -13.7632 138.914 -13.9200 138.802 TC 20 -13.9000 138.800 1 20 -13.7254 139.192 TC 15 1006 7 265
1970071S11155 1970 28 SP EA CINDY 1970-03-16 09:00:00 TS -13.8510 138.781 main 199 167 P_____P__PP_P_ SH231970 -13.9350 138.650 20 -1 -13.7741 138.808 -13.9350 138.650 TC 20 -13.9283 138.645 1 19 -13.7424 139.093 TC 15 1006 8 262
1970071S11155 1970 28 SP EA CINDY 1970-03-16 11:00:00 TS -13.8904 138.526 bom main 167 157 P_____O__PP_P_ SH231970 -13.9750 138.347 20 -1 -13.8000 138.600 -13.9750 138.347 TC 20 -13.9949 138.331 1 18 -13.7807 138.897 TC 15 1006 8 260
1970071S11155 1970 28 SP EA CINDY 1970-03-16 12:00:00 TS -13.9130 138.400 main 157 123 O_____P__OP_O_ jtwc_sh SH231970 -14.0000 138.200 20 -1 -13.8152 138.498 -14.0000 138.200 TC 20 -14.0316 138.174 1 18 -13.8000 138.800 TC 15 1006 7 258
1970071S11155 1970 28 SP EA CINDY 1970-03-16 15:00:00 TS -13.9896 138.037 main 112 78 P_____P__PP_P_ SH231970 -14.0999 137.785 17 -1 -13.8699 138.200 -14.0999 137.785 TC 17 -14.1457 137.721 1 17 -13.8425 138.500 TC 15 1006 7 257
1970071S11155 1970 28 SP EA CINDY 1970-03-16 18:00:00 TS -14.0710 137.695 main 78 58 O_____P__OP_O_ jtwc_sh SH231970 -14.2000 137.400 15 -1 -13.9384 137.911 -14.2000 137.400 TC 15 -14.2485 137.321 1 15 -13.9000 138.200 TC 15 1006 7 256
1970071S11155 1970 28 SP EA CINDY 1970-03-16 20:00:00 TS -14.1217 137.470 main 58 48 P_____P__PO_P_ SH231970 -14.2467 137.126 15 -1 -13.9918 137.723 -14.2467 137.126 TC 15 -14.3000 137.100 1 15 -13.9588 137.995 TC 15 1006 7 257
1970071S11155 1970 28 SP EA CINDY 1970-03-16 21:00:00 TS -14.1433 137.365 main 48 15 P_____P__PP_P_ SH231970 -14.2650 136.997 15 -1 -14.0208 137.630 -14.2650 136.997 TC 15 -14.3046 137.012 1 15 -13.9925 137.893 TC 15 1006 6 258
1970071S11155 1970 28 SP EA CINDY 1970-03-16 23:30:00 TS -14.1926 137.133 1002 bom main 15 15 P_____O__PP_P_ SH231970 -14.2963 136.737 15 -1 -14.1000 137.400 1002 -14.2963 136.737 TC 15 -14.2967 136.836 1 16 -14.0821 137.647 TC 15 1006 5 257
1970071S11155 1970 28 SP EA CINDY 1970-03-17 00:00:00 TS -14.2015 137.094 main 15 0 O_____P__OP_O_ jtwc_sh SH231970 -14.3000 136.700 15 -1 -14.1158 137.354 1001 -14.3000 136.700 TC 15 -14.2931 136.807 1 16 -14.1000 137.600 TC 15 1006 4 256
1970071S11155 1970 28 SP EA CINDY 1970-03-17 03:00:00 TS -14.2455 136.915 main 0 0 P_____P__PP_P_ SH231970 -14.2924 136.620 17 -1 -14.2205 137.081 998 -14.2924 136.620 TC 17 -14.2702 136.669 1 17 -14.1924 137.350 TC 15 1006 3 253
1970071S11155 1970 28 SP EA CINDY 1970-03-17 05:00:00 TS -14.2821 136.816 996 bom main 0 0 P_____O__PP_P_ SH231970 -14.2912 136.612 19 -1 -14.3000 136.900 996 -14.2912 136.612 TC 19 -14.2656 136.598 1 18 -14.2609 137.186 TC 15 1006 3 247
1970071S11155 1970 28 SP EA CINDY 1970-03-17 06:00:00 TS -14.3066 136.763 main 0 0 O_____P__OP_O_ jtwc_sh SH231970 -14.3000 136.600 20 -1 -14.3439 136.814 995 -14.3000 136.600 TC 20 -14.2703 136.565 1 19 -14.3000 137.100 TC 15 1006 4 243
1970071S11155 1970 28 SP EA CINDY 1970-03-17 08:00:00 TS -14.3713 136.633 main 11 11 P_____P__PO_P_ SH231970 -14.3400 136.510 20 -1 -14.4377 136.642 995 -14.3400 136.510 TC 20 -14.3000 136.500 1 20 -14.3975 136.913 TC 15 1006 4 241
1970071S11155 1970 28 SP EA CINDY 1970-03-17 09:00:00 TS -14.4126 136.561 main 11 11 P_____P__PP_P_ SH231970 -14.3700 136.458 20 -1 -14.4856 136.552 995 -14.3700 136.458 TC 20 -14.3422 136.461 1 20 -14.4500 136.815 TC 15 1006 5 238
1970071S11155 1970 28 SP EA CINDY 1970-03-17 11:30:00 TS -14.5301 136.372 bom main 31 31 P_____I__PP_P_ SH231970 -14.4742 136.324 20 -1 -14.6000 136.300 995 -14.4742 136.324 TC 20 -14.4792 136.370 1 20 -14.5771 136.555 TC 15 1006 5 237
1970071S11155 1970 28 SP EA CINDY 1970-03-17 12:00:00 TS -14.5550 136.333 main 44 44 O_____P__OP_O_ jtwc_sh SH231970 -14.5000 136.300 20 -1 -14.6198 136.243 995 -14.5000 136.300 TC 20 -14.5104 136.353 1 20 -14.6000 136.500 TC 15 1006 6 235
1970071S11155 1970 28 SP EA CINDY 1970-03-17 14:00:00 TS -14.6638 136.177 995 bom main 57 57 P_____O__PP_P_ SH231970 -14.6338 136.242 20 -1 -14.7000 136.000 995 4 -14.6338 136.242 TC 20 -14.6423 136.280 1 20 -14.6691 136.269 TC 15 1006 6 234
1970071S11155 1970 28 SP EA CINDY 1970-03-17 15:00:00 TS -14.7214 136.097 main 58 31 P_____P__PP_P_ SH231970 -14.7074 136.215 20 -1 -14.7480 135.873 995 -14.7074 136.215 TC 20 -14.7096 136.242 1 20 -14.7000 136.150 TC 15 1006 6 235
1970071S11155 1970 28 SP EA CINDY 1970-03-17 18:00:00 TS -14.8832 135.852 bom main 31 11 O_____I__OP_O_ jtwc_sh SH231970 -14.9000 136.100 20 -1 -14.9000 135.500 996 -14.9000 136.100 TC 20 -14.8991 136.109 1 20 -14.8000 135.800 TC 15 1006 6 240
1970071S11155 1970 28 SP EA CINDY 1970-03-17 20:00:00 TS -14.9566 135.667 main 11 10 P_____P__PO_P_ SH231970 -14.9570 135.962 20 -1 -14.9604 135.245 997 -14.9570 135.962 TC 20 -15.0000 136.000 1 20 -14.8921 135.549 TC 16 1006 6 250
1970071S11155 1970 28 SP EA CINDY 1970-03-17 21:00:00 TS -14.9843 135.572 main 10 0 P_____P__PP_P_ SH231970 -14.9725 135.880 20 -1 -14.9891 135.137 997 -14.9725 135.880 TC 20 -15.0237 135.912 1 20 -14.9426 135.433 TC 17 1006 5 252
1970071S11155 1970 28 SP EA CINDY 1970-03-17 23:30:00 TS -15.0508 135.368 bom main 0 0 P_____I__PP_P_ SH231970 -14.9954 135.649 20 -1 -15.1000 135.000 998 -14.9954 135.649 TC 20 -15.0563 135.665 1 20 -15.0738 135.222 TC 19 1006 5 250
1970071S11155 1970 28 SP EA CINDY 1970-03-18 00:00:00 TS -15.0661 135.337 main 0 0 O_____P__OP_O_ jtwc_sh SH231970 -15.0000 135.600 20 -1 -15.1372 135.006 998 -15.0000 135.600 TC 20 -15.0594 135.614 1 20 -15.1000 135.200 TC 20 1006 4 238
1970071S11155 1970 28 SP EA CINDY 1970-03-18 02:00:00 TS -15.1348 135.233 999 bom main 0 0 P_____O__PP_P_ SH231970 -15.0280 135.364 20 -1 -15.3000 135.100 999 -15.0280 135.364 TC 20 -15.0654 135.410 1 20 -15.2054 135.198 TC 20 1006 3 233
1970071S11155 1970 28 SP EA CINDY 1970-03-18 03:00:00 TS -15.1663 135.192 main 0 0 P_____P__PP_P_ SH231970 -15.0426 135.248 20 -1 -15.3630 135.139 -15.0426 135.248 TC 20 -15.0666 135.314 1 20 -15.2574 135.232 TC 20 1006 2 216
1970071S11155 1970 28 SP EA CINDY 1970-03-18 06:00:00 TS -15.2545 135.137 main 0 0 O_____P__OP_O_ jtwc_sh SH231970 -15.1000 135.000 20 -1 -15.4903 135.257 -15.1000 135.000 TC 20 -15.0764 135.083 1 20 -15.4000 135.400 TC 20 1006 2 182
1970071S11155 1970 28 SP EA CINDY 1970-03-18 08:00:00 TS -15.3142 135.171 main 0 0 P_____P__PO_P_ SH231970 -15.1587 134.993 20 -1 -15.5395 135.339 -15.1587 134.993 TC 20 -15.1000 135.000 1 20 -15.4800 135.492 TC 20 1006 2 146
1970071S11155 1970 28 SP EA CINDY 1970-03-18 09:00:00 TS -15.3468 135.209 main 0 0 P_____P__PP_P_ SH231970 -15.1924 135.025 20 -1 -15.5582 135.382 -15.1924 135.025 TC 20 -15.1331 135.000 1 19 -15.5150 135.542 TC 20 1006 3 125
1970071S11155 1970 28 SP EA CINDY 1970-03-18 11:30:00 TS -15.4283 135.340 bom main 0 0 P_____O__PP_P_ SH231970 -15.2821 135.167 20 -1 -15.6000 135.500 -15.2821 135.167 TC 20 -15.2343 135.069 1 18 -15.5879 135.674 TC 20 1006 4 123
1970071S11155 1970 28 SP EA CINDY 1970-03-18 12:00:00 TS -15.4454 135.370 main 0 0 O_____P__OP_O_ jtwc_sh SH231970 -15.3000 135.200 20 -1 -15.6159 135.526 -15.3000 135.200 TC 20 -15.2567 135.093 1 18 -15.6000 135.700 TC 20 1006 4 121
1970071S11155 1970 28 SP EA CINDY 1970-03-18 15:00:00 TS -15.5435 135.543 main 0 0 P_____P__PP_P_ SH231970 -15.4000 135.385 17 -1 -15.7064 135.698 -15.4000 135.385 TC 17 -15.3971 135.287 1 17 -15.6575 135.843 TC 20 1006 4 117
1970071S11155 1970 28 SP EA CINDY 1970-03-18 18:00:00 TS -15.6299 135.741 main 0 0 O_____P__OP_O_ jtwc_sh SH231970 -15.5000 135.600 15 -1 -15.7754 135.880 -15.5000 135.600 TC 15 -15.5290 135.533 1 15 -15.7000 136.000 TC 20 1006 4 114
1970071S11155 1970 28 SP EA CINDY 1970-03-18 20:00:00 TS -15.6867 135.876 1000 bom main 0 0 P_____O__PO_P_ SH231970 -15.5775 135.733 15 -1 -15.8000 136.000 1000 -15.5775 135.733 TC 15 -15.6000 135.700 1 15 -15.7605 136.136 TC 18 1006 4 113
1970071S11155 1970 28 SP EA CINDY 1970-03-18 21:00:00 TS -15.7132 135.942 main 0 0 P_____P__PP_P_ SH231970 -15.6150 135.800 15 -1 -15.8215 136.061 1000 -15.6150 135.800 TC 15 -15.6279 135.766 1 15 -15.7875 136.207 TC 17 1006 4 105
1970071S11155 1970 28 SP EA CINDY 1970-03-18 23:30:00 TS -15.7464 136.102 bom main 0 0 P_____I__PP_P_ SH231970 -15.6900 135.967 15 -1 -15.8000 136.200 1000 -15.6900 135.967 TC 15 -15.6835 135.935 1 15 -15.8084 136.372 TC 15 1006 4 99
1970071S11155 1970 28 SP EA CINDY 1970-03-19 00:00:00 TS -15.7436 136.132 main 0 0 O_____P__OP_O_ jtwc_sh SH231970 -15.7000 136.000 15 -1 -15.7696 136.223 1000 -15.7000 136.000 TC 15 -15.6921 135.970 1 15 -15.8000 136.400 TC 15 1006 3 71
1970071S11155 1970 28 SP EA CINDY 1970-03-19 02:00:00 TS -15.6993 136.244 1000 bom main 0 0 P_____O__PP_P_ SH231970 -15.7212 136.139 15 -1 -15.6000 136.300 1000 -15.7212 136.139 TC 15 -15.7175 136.107 1 15 -15.6898 136.466 TC 15 1006 4 65
1970071S11155 1970 28 SP EA CINDY 1970-03-19 03:00:00 TS -15.6697 136.298 main 0 0 P_____P__PP_P_ SH231970 -15.7225 136.208 15 -1 -15.5247 136.331 -15.7225 136.208 TC 15 -15.7247 136.176 1 15 -15.6149 136.493 TC 15 1006 4 59
1970071S11155 1970 28 SP EA CINDY 1970-03-19 05:00:00 TS -15.6054 136.405 bom main 10 10 P_____O__PP_P_ SH231970 -15.7110 136.339 15 -1 -15.4000 136.400 -15.7110 136.339 TC 15 -15.7272 136.310 1 15 -15.4626 136.555 TC 15 1006 4 59
1970071S11155 1970 28 SP EA CINDY 1970-03-19 06:00:00 TS -15.5755 136.462 main 11 11 O_____P__OP_O_ jtwc_sh SH231970 -15.7000 136.400 15 -1 -15.3581 136.456 -15.7000 136.400 TC 15 -15.7224 136.375 1 15 -15.4000 136.600 TC 15 1006 4 67
1970071S11155 1970 28 SP EA CINDY 1970-03-19 08:00:00 TS -15.5324 136.587 main 24 24 P_____P__PO_P_ SH231970 -15.6854 136.508 15 -1 -15.3133 136.601 -15.6854 136.508 TC 15 -15.7000 136.500 1 15 -15.3376 136.748 TC 15 1006 4 71
1970071S11155 1970 28 SP EA CINDY 1970-03-19 09:00:00 TS -15.5121 136.652 main 30 30 P_____P__PP_P_ SH231970 -15.6725 136.557 15 -1 -15.3046 136.684 -15.6725 136.557 TC 15 -15.6785 136.559 1 15 -15.3201 136.835 TC 15 1006 4 71
1970071S11155 1970 28 SP EA CINDY 1970-03-19 11:30:00 TS -15.4590 136.813 bom main 35 35 P_____O__PP_P_ SH231970 -15.6163 136.676 15 -1 -15.3000 136.900 -15.6163 136.676 TC 15 -15.6024 136.700 1 15 -15.3013 137.058 TC 15 1006 4 71
1970071S11155 1970 28 SP EA CINDY 1970-03-19 12:00:00 TS -15.4463 136.844 main 46 46 O_____P__OP_O_ jtwc_sh SH231970 -15.6000 136.700 15 -1 -15.2931 136.939 -15.6000 136.700 TC 15 -15.5844 136.727 1 15 -15.3000 137.100 TC 15 1006 4 63
1970071S11155 1970 28 SP EA CINDY 1970-03-19 15:00:00 TS -15.3537 137.025 main 55 55 P_____P__PP_P_ SH231970 -15.4425 136.858 15 -1 -15.2559 137.168 -15.4425 136.858 TC 15 -15.4678 136.879 1 15 -15.3000 137.307 TC 15 1006 4 63
1970071S11155 1970 28 SP EA CINDY 1970-03-19 18:00:00 TS -15.2739 137.195 main 77 77 O_____P__OP_O_ jtwc_sh SH231970 -15.3000 137.000 15 -1 -15.2267 137.383 -15.3000 137.000 TC 15 -15.3569 137.017 1 15 -15.3000 137.500 TC 15 1006 3 68
1970071S11155 1970 28 SP EA CINDY 1970-03-19 20:00:00 TS -15.2453 137.300 main 90 90 P_____P__PO_P_ SH231970 -15.2763 137.075 15 -1 -15.2126 137.513 -15.2763 137.075 TC 15 -15.3000 137.100 1 15 -15.2583 137.633 TC 15 1006 3 77
1970071S11155 1970 28 SP EA CINDY 1970-03-19 21:00:00 TS -15.2394 137.351 main 92 92 P_____P__PP_P_ SH231970 -15.2775 137.107 15 -1 -15.2074 137.572 -15.2775 137.107 TC 15 -15.2878 137.141 1 15 -15.2350 137.700 TC 15 1006 3 89
1970071S11155 1970 28 SP EA CINDY 1970-03-19 23:30:00 TS -15.2423 137.472 bom main 95 95 P_____O__PP_P_ SH231970 -15.2963 137.185 15 -1 -15.2000 137.700 -15.2963 137.185 TC 15 -15.2742 137.237 1 16 -15.1995 137.867 TC 15 1006 3 92
1970071S11155 1970 28 SP EA CINDY 1970-03-20 00:00:00 TS -15.2450 137.496 main 95 84 O_____P__OP_O_ jtwc_sh SH231970 -15.3000 137.200 15 -1 -15.1964 137.719 -15.3000 137.200 TC 15 -15.2738 137.254 1 16 -15.2000 137.900 TC 15 1006 3 101
1970071S11155 1970 28 SP EA CINDY 1970-03-20 02:00:00 TS -15.2631 137.590 999 bom main 89 89 P_____O__PP_P_ SH231970 -15.3000 137.267 16 -1 -15.2000 137.800 999 -15.3000 137.267 TC 16 -15.2775 137.322 1 17 -15.2320 138.022 TC 15 1006 3 104
1970071S11155 1970 28 SP EA CINDY 1970-03-20 03:00:00 TS -15.2805 137.642 main 89 89 P_____P__PP_P_ SH231970 -15.3000 137.300 17 -1 -15.2249 137.860 -15.3000 137.300 TC 17 -15.2815 137.354 1 17 -15.2624 138.085 TC 15 1006 4 111
1970071S11155 1970 28 SP EA CINDY 1970-03-20 05:00:00 TS -15.3288 137.771 main 99 92 P_____P__PP_P_ SH231970 -15.3000 137.367 19 -1 -15.3214 138.021 -15.3000 137.367 TC 19 -15.2909 137.415 1 18 -15.3473 138.222 TC 15 1006 5 109
1970071S11155 1970 28 SP EA CINDY 1970-03-20 06:00:00 TS -15.3646 137.894 main 92 92 O_____P__OP_O_ jtwc_sh SH231970 -15.3000 137.400 20 -1 -15.3878 138.118 -15.3000 137.400 TC 20 -15.2952 137.444 1 19 -15.4000 138.300 TC 15 1006 7 111
1970071S11155 1970 28 SP EA CINDY 1970-03-20 08:00:00 TS -15.4543 138.104 main 89 89 P_____P__PO_P_ SH231970 -15.3054 137.467 20 -1 -15.5444 138.336 -15.3054 137.467 TC 20 -15.3000 137.500 1 20 -15.5175 138.479 TC 15 1006 7 113
1970071S11155 1970 28 SP EA CINDY 1970-03-20 09:00:00 TS -15.5036 138.234 main 94 92 P_____P__PP_P_ SH231970 -15.3075 137.500 20 -1 -15.6294 138.455 -15.3075 137.500 TC 20 -15.2995 137.527 1 19 -15.5850 138.577 TC 15 1006 7 114
1970071S11155 1970 28 SP EA CINDY 1970-03-20 11:00:00 TS -15.5963 138.440 bom main 100 100 P_____O__PP_P_ SH231970 -15.3057 137.567 20 -1 -15.8000 138.700 -15.3057 137.567 TC 20 -15.2925 137.579 1 17 -15.7281 138.789 TC 15 1006 6 115
1970071S11155 1970 28 SP EA CINDY 1970-03-20 12:00:00 TS -15.6311 138.521 main 108 108 O_____P__OP_O_ jtwc_sh SH231970 -15.3000 137.600 20 -1 -15.8810 138.824 -15.3000 137.600 TC 20 -15.2864 137.605 1 16 -15.8000 138.900 TC 15 1006 6 113
1970071S11155 1970 28 SP EA CINDY 1970-03-20 15:00:00 TS -15.7574 138.833 main 113 112 P_____P__PP_P_ SH231970 -15.1665 137.544 17 -1 -16.1031 139.198 -15.2600 137.700 TC 17 -15.2601 137.680 1 14 -15.9999 139.235 TC 15 1006 8 114
1970071S11155 1970 28 SP EA CINDY 1970-03-20 17:00:00 TS -15.8868 139.130 main 112 105 P_____P__PP_P_ SH231970 -15.1501 137.648 15 -1 -16.2370 139.448 -15.2210 137.767 TC 15 -15.2375 137.728 1 12 -16.1333 139.475 TC 15 1006 12 115
1970071S11155 1970 28 SP EA CINDY 1970-03-20 18:00:00 TS -16.0096 139.388 main 109 104 O_____P__OP_O_ jtwc_sh SH231970 -15.2000 137.800 15 -1 -16.3007 139.573 -15.2000 137.800 TC 15 -15.2253 137.752 1 11 -16.2000 139.600 TC 15 1006 14 117
1970071S11155 1970 28 SP EA CINDY 1970-03-20 20:00:00 TS -16.2077 139.786 main 110 108 P_____P___O_P_ SH231970 -15.5339 138.501 18 -1 -16.4233 139.823 TC -15.2000 137.800 1 10 -16.3335 139.859 TC 15 1006 13 117
1970071S11155 1970 28 SP EA CINDY 1970-03-20 21:00:00 TS -16.2900 139.970 main 115 115 P_____P_____P_ SH231970 -15.7453 138.932 20 -1 -16.4828 139.949 TC 1 -16.4002 139.992 TC 15 1006 7 114
1970071S11155 1970 28 SP EA CINDY 1970-03-20 23:00:00 TS -16.3380 140.098 bom main 123 123 P_____O_____P_ SH231970 -16.1493 139.769 23 -1 -16.6000 140.200 TC 1 -16.5335 140.263 TC 15 1006 3 102
1970071S11155 1970 28 SP EA CINDY 1970-03-21 00:00:00 TS -16.3242 140.132 main 123 105 O___________O_ jtwc_sh SH251970 -16.3000 140.100 25 -1 1 -16.6000 140.400 TC 15 1006 3 86
1970071S11155 1970 28 SP EA CINDY 1970-03-21 03:00:00 TS -16.3254 140.284 main 105 96 P_____________ SH251970 -16.3964 140.436 25 -1 1 TC 3 87
1970071S11155 1970 28 SP EA CINDY 1970-03-21 05:00:00 TS -16.3111 140.417 main 96 86 P_____________ SH251970 -16.3398 140.478 25 -1 1 TC 4 81
1970071S11155 1970 28 SP EA CINDY 1970-03-21 06:00:00 TS -16.2948 140.493 main 86 67 O_____________ jtwc_sh SH251970 -16.3000 140.500 25 -1 1 5 72
1970071S11155 1970 28 SP EA CINDY 1970-03-21 09:00:00 TS -16.2111 140.737 main 67 42 P_____________ SH251970 -16.2150 140.735 22 -1 5 68
1970071S11155 1970 28 SP EA CINDY 1970-03-21 12:00:00 TS -16.0968 141.008 main 42 10 O_____________ jtwc_sh SH251970 -16.1000 141.000 20 -1 6 68
1970071S11155 1970 28 SP EA CINDY 1970-03-21 15:00:00 TS -15.9854 141.304 main 10 0 P_____________ SH251970 -15.9925 141.300 17 -1 6 69
1970071S11155 1970 28 SP EA CINDY 1970-03-21 17:00:00 TS -15.9184 141.502 main 0 0 P_____________ SH251970 -15.9276 141.503 15 -1 6 71
1970071S11155 1970 28 SP EA CINDY 1970-03-21 18:00:00 TS -15.8905 141.593 main 0 0 O_____________ jtwc_sh SH251970 -15.9000 141.600 15 -1 5 74
1970071S11155 1970 28 SP EA CINDY 1970-03-21 21:00:00 TS -15.8267 141.839 main 0 0 P_____________ SH251970 -15.8424 141.857 15 -1 5 77
1970071S11155 1970 28 SP EA CINDY 1970-03-22 00:00:00 TS -15.7792 142.078 main 0 0 O_____________ jtwc_sh SH251970 -15.8000 142.100 15 -1 5 78
1970071S11155 1970 28 SP EA CINDY 1970-03-22 03:00:00 TS -15.7249 142.317 main 0 0 P_____________ SH251970 -15.7349 142.328 15 -1 5 79
1970071S11155 1970 28 SP EA CINDY 1970-03-22 05:00:00 TS -15.7034 142.500 main 0 0 P_____________ SH251970 -15.7052 142.500 15 -1 6 85
1970071S11155 1970 28 SP EA CINDY 1970-03-22 06:00:00 TS -15.7013 142.605 main 0 0 O_____________ jtwc_sh SH251970 -15.7000 142.600 15 -1 7 93
1970071S11155 1970 28 SP EA CINDY 1970-03-22 09:00:00 TS -15.7316 142.982 main 0 0 P_____________ SH251970 -15.7302 142.970 15 -1 8 97
1970071S11155 1970 28 SP EA CINDY 1970-03-22 12:00:00 TS -15.7914 143.415 main 0 0 O_____________ jtwc_sh SH251970 -15.8000 143.400 15 -1 9 98
1970071S11155 1970 28 SP EA CINDY 1970-03-22 15:00:00 NR -15.8523 143.885 main 0 0 ______________ SH251970 -1 9 98
1970071S11155 1970 28 SP EA CINDY 1970-03-22 17:00:00 NR -15.9000 144.200 main 0 ______________ SH251970 -1 9 99

Digital Typhoon Data and Search

About IBTrACS Database

This database is a web-friendly format of International Best Track Archive for Climate Stewardship (IBTrACS), a global best track data archive curated by NOAA dating back to 1842.

Updated: 2021-12-06